sensor_id;sensor_type;location;lat;lon;timestamp;pressure;altitude;pressure_sealevel;temperature;humidity
77939;BME280;67136;47.546;21.630;2023-07-31T00:10:10;99764.25;;;18.58;100.00
77939;BME280;67136;47.546;21.630;2023-07-31T00:13:13;99770.50;;;18.51;99.91
77939;BME280;67136;47.546;21.630;2023-07-31T00:16:16;99765.84;;;18.53;100.00
77939;BME280;67136;47.546;21.630;2023-07-31T00:19:19;99766.41;;;18.48;100.00
77939;BME280;67136;47.546;21.630;2023-07-31T00:22:21;99765.75;;;18.46;100.00
77939;BME280;67136;47.546;21.630;2023-07-31T00:25:24;99773.91;;;18.45;100.00
77939;BME280;67136;47.546;21.630;2023-07-31T00:28:26;99775.56;;;18.46;100.00
77939;BME280;67136;47.546;21.630;2023-07-31T00:31:30;99773.53;;;18.48;100.00
77939;BME280;67136;47.546;21.630;2023-07-31T00:34:32;99773.97;;;18.51;100.00
77939;BME280;67136;47.546;21.630;2023-07-31T00:37:35;99776.06;;;18.56;100.00
77939;BME280;67136;47.546;21.630;2023-07-31T00:40:37;99777.09;;;18.62;100.00
77939;BME280;67136;47.546;21.630;2023-07-31T00:43:40;99783.03;;;18.64;100.00
77939;BME280;67136;47.546;21.630;2023-07-31T00:46:43;99785.75;;;18.70;100.00
77939;BME280;67136;47.546;21.630;2023-07-31T00:49:46;99782.72;;;18.73;100.00
77939;BME280;67136;47.546;21.630;2023-07-31T00:52:48;99792.94;;;18.76;100.00
77939;BME280;67136;47.546;21.630;2023-07-31T00:55:52;99785.00;;;18.76;100.00
77939;BME280;67136;47.546;21.630;2023-07-31T00:58:55;99780.34;;;18.78;100.00
77939;BME280;67136;47.546;21.630;2023-07-31T01:01:58;99778.47;;;18.79;100.00
77939;BME280;67136;47.546;21.630;2023-07-31T01:05:02;99774.84;;;18.80;100.00
77939;BME280;67136;47.546;21.630;2023-07-31T01:08:15;99769.34;;;18.81;100.00
77939;BME280;67136;47.546;21.630;2023-07-31T01:11:46;99776.66;;;18.79;100.00
77939;BME280;67136;47.546;21.630;2023-07-31T01:15:03;99768.72;;;18.79;100.00
77939;BME280;67136;47.546;21.630;2023-07-31T01:18:06;99772.37;;;18.78;100.00
77939;BME280;67136;47.546;21.630;2023-07-31T01:28:10;99763.16;;;18.74;100.00
77939;BME280;67136;47.546;21.630;2023-07-31T01:31:18;99765.19;;;18.72;100.00
77939;BME280;67136;47.546;21.630;2023-07-31T01:34:23;99752.97;;;18.71;100.00
77939;BME280;67136;47.546;21.630;2023-07-31T01:37:29;99751.31;;;18.70;100.00
77939;BME280;67136;47.546;21.630;2023-07-31T01:40:36;99746.00;;;18.70;100.00
77939;BME280;67136;47.546;21.630;2023-07-31T01:43:38;99743.16;;;18.72;100.00
77939;BME280;67136;47.546;21.630;2023-07-31T01:46:41;99734.81;;;18.68;100.00
77939;BME280;67136;47.546;21.630;2023-07-31T01:49:44;99738.66;;;18.66;100.00
77939;BME280;67136;47.546;21.630;2023-07-31T01:52:47;99735.56;;;18.62;100.00
77939;BME280;67136;47.546;21.630;2023-07-31T01:55:49;99737.31;;;18.55;100.00
77939;BME280;67136;47.546;21.630;2023-07-31T01:58:52;99742.75;;;18.47;100.00
77939;BME280;67136;47.546;21.630;2023-07-31T02:01:55;99742.22;;;18.37;100.00
77939;BME280;67136;47.546;21.630;2023-07-31T02:04:58;99729.53;;;18.26;100.00
77939;BME280;67136;47.546;21.630;2023-07-31T02:08:01;99738.56;;;18.17;100.00
77939;BME280;67136;47.546;21.630;2023-07-31T02:11:07;99741.16;;;18.10;100.00
77939;BME280;67136;47.546;21.630;2023-07-31T02:14:10;99737.16;;;18.00;100.00
77939;BME280;67136;47.546;21.630;2023-07-31T02:17:12;99745.22;;;17.92;100.00
77939;BME280;67136;47.546;21.630;2023-07-31T02:20:15;99754.28;;;17.83;100.00
77939;BME280;67136;47.546;21.630;2023-07-31T02:23:18;99740.53;;;17.73;100.00
77939;BME280;67136;47.546;21.630;2023-07-31T02:26:21;99750.66;;;17.69;100.00
77939;BME280;67136;47.546;21.630;2023-07-31T02:29:24;99757.50;;;17.64;100.00
77939;BME280;67136;47.546;21.630;2023-07-31T02:32:26;99759.88;;;17.59;100.00
77939;BME280;67136;47.546;21.630;2023-07-31T02:35:29;99763.44;;;17.51;100.00
77939;BME280;67136;47.546;21.630;2023-07-31T02:38:32;99762.19;;;17.47;100.00
77939;BME280;67136;47.546;21.630;2023-07-31T02:41:34;99767.97;;;17.42;100.00
77939;BME280;67136;47.546;21.630;2023-07-31T02:44:37;99772.97;;;17.37;100.00
77939;BME280;67136;47.546;21.630;2023-07-31T02:47:40;99771.72;;;17.33;100.00
77939;BME280;67136;47.546;21.630;2023-07-31T02:50:42;99777.72;;;17.27;100.00
77939;BME280;67136;47.546;21.630;2023-07-31T02:53:45;99772.81;;;17.24;100.00
77939;BME280;67136;47.546;21.630;2023-07-31T02:56:48;99772.16;;;17.22;100.00
77939;BME280;67136;47.546;21.630;2023-07-31T02:59:51;99772.72;;;17.18;100.00
77939;BME280;67136;47.546;21.630;2023-07-31T03:02:54;99768.44;;;17.17;100.00
77939;BME280;67136;47.546;21.630;2023-07-31T03:05:57;99767.97;;;17.13;100.00
77939;BME280;67136;47.546;21.630;2023-07-31T03:08:59;99781.53;;;17.10;100.00
77939;BME280;67136;47.546;21.630;2023-07-31T03:12:03;99771.97;;;17.09;100.00
77939;BME280;67136;47.546;21.630;2023-07-31T03:15:06;99778.28;;;17.08;100.00
77939;BME280;67136;47.546;21.630;2023-07-31T03:18:09;99777.81;;;17.05;100.00
77939;BME280;67136;47.546;21.630;2023-07-31T03:21:12;99785.09;;;17.03;100.00
77939;BME280;67136;47.546;21.630;2023-07-31T03:24:15;99788.72;;;17.02;100.00
77939;BME280;67136;47.546;21.630;2023-07-31T03:27:18;99779.25;;;17.07;100.00
77939;BME280;67136;47.546;21.630;2023-07-31T03:30:21;99786.53;;;17.05;100.00
77939;BME280;67136;47.546;21.630;2023-07-31T03:33:23;99786.91;;;17.02;100.00
77939;BME280;67136;47.546;21.630;2023-07-31T03:36:26;99789.34;;;17.04;100.00
77939;BME280;67136;47.546;21.630;2023-07-31T03:39:29;99789.72;;;17.01;100.00
77939;BME280;67136;47.546;21.630;2023-07-31T03:42:32;99794.81;;;17.02;100.00
77939;BME280;67136;47.546;21.630;2023-07-31T03:45:35;99789.81;;;17.07;100.00
77939;BME280;67136;47.546;21.630;2023-07-31T03:48:38;99800.38;;;17.07;100.00
77939;BME280;67136;47.546;21.630;2023-07-31T03:51:40;99803.50;;;17.11;100.00
77939;BME280;67136;47.546;21.630;2023-07-31T03:54:44;99792.75;;;17.12;100.00
77939;BME280;67136;47.546;21.630;2023-07-31T03:57:47;99799.59;;;17.21;100.00
77939;BME280;67136;47.546;21.630;2023-07-31T04:00:49;99798.06;;;17.27;100.00
77939;BME280;67136;47.546;21.630;2023-07-31T04:03:52;99796.50;;;17.32;100.00
77939;BME280;67136;47.546;21.630;2023-07-31T04:06:55;99799.41;;;17.37;100.00
77939;BME280;67136;47.546;21.630;2023-07-31T04:09:58;99799.88;;;17.41;100.00
77939;BME280;67136;47.546;21.630;2023-07-31T04:13:00;99806.28;;;17.47;100.00
77939;BME280;67136;47.546;21.630;2023-07-31T04:16:03;99790.06;;;17.50;100.00
77939;BME280;67136;47.546;21.630;2023-07-31T04:19:06;99794.00;;;17.54;100.00
77939;BME280;67136;47.546;21.630;2023-07-31T04:22:08;99794.91;;;17.61;100.00
77939;BME280;67136;47.546;21.630;2023-07-31T04:25:11;99803.53;;;17.69;100.00
77939;BME280;67136;47.546;21.630;2023-07-31T04:28:13;99804.63;;;17.75;100.00
77939;BME280;67136;47.546;21.630;2023-07-31T04:31:16;99799.22;;;17.83;100.00
77939;BME280;67136;47.546;21.630;2023-07-31T04:34:19;99814.38;;;17.89;100.00
77939;BME280;67136;47.546;21.630;2023-07-31T04:37:22;99805.69;;;17.95;100.00
77939;BME280;67136;47.546;21.630;2023-07-31T04:40:25;99819.00;;;18.01;100.00
77939;BME280;67136;47.546;21.630;2023-07-31T04:43:27;99812.78;;;18.09;100.00
77939;BME280;67136;47.546;21.630;2023-07-31T04:46:30;99816.34;;;18.16;100.00
77939;BME280;67136;47.546;21.630;2023-07-31T04:49:33;99811.91;;;18.23;100.00
77939;BME280;67136;47.546;21.630;2023-07-31T04:52:35;99818.13;;;18.30;100.00
77939;BME280;67136;47.546;21.630;2023-07-31T04:55:38;99816.16;;;18.38;100.00
77939;BME280;67136;47.546;21.630;2023-07-31T04:58:41;99823.22;;;18.46;100.00
77939;BME280;67136;47.546;21.630;2023-07-31T05:01:43;99830.00;;;18.55;100.00
77939;BME280;67136;47.546;21.630;2023-07-31T05:04:47;99833.56;;;18.62;100.00
77939;BME280;67136;47.546;21.630;2023-07-31T05:07:50;99840.13;;;18.66;100.00
77939;BME280;67136;47.546;21.630;2023-07-31T05:10:52;99841.00;;;18.73;100.00
77939;BME280;67136;47.546;21.630;2023-07-31T05:13:55;99843.91;;;18.78;100.00
77939;BME280;67136;47.546;21.630;2023-07-31T05:16:58;99841.94;;;18.87;100.00
77939;BME280;67136;47.546;21.630;2023-07-31T05:20:02;99849.19;;;18.99;100.00
77939;BME280;67136;47.546;21.630;2023-07-31T05:23:05;99851.06;;;19.05;100.00
77939;BME280;67136;47.546;21.630;2023-07-31T05:26:07;99841.34;;;19.12;100.00
77939;BME280;67136;47.546;21.630;2023-07-31T05:29:12;99840.81;;;19.23;100.00
77939;BME280;67136;47.546;21.630;2023-07-31T05:32:15;99844.44;;;19.37;99.62
77939;BME280;67136;47.546;21.630;2023-07-31T05:35:17;99854.28;;;19.49;99.28
77939;BME280;67136;47.546;21.630;2023-07-31T05:38:20;99852.38;;;19.71;96.70
77939;BME280;67136;47.546;21.630;2023-07-31T05:41:23;99847.56;;;19.88;95.74
77939;BME280;67136;47.546;21.630;2023-07-31T05:44:25;99845.44;;;20.11;95.04
77939;BME280;67136;47.546;21.630;2023-07-31T05:47:28;99848.81;;;20.32;93.75
77939;BME280;67136;47.546;21.630;2023-07-31T05:50:31;99856.41;;;20.55;92.12
77939;BME280;67136;47.546;21.630;2023-07-31T05:53:34;99858.09;;;20.69;91.74
77939;BME280;67136;47.546;21.630;2023-07-31T05:56:38;99861.63;;;21.02;89.17
77939;BME280;67136;47.546;21.630;2023-07-31T05:59:41;99871.63;;;21.65;87.16
77939;BME280;67136;47.546;21.630;2023-07-31T06:02:43;99863.19;;;22.39;84.04
77939;BME280;67136;47.546;21.630;2023-07-31T06:05:46;99867.62;;;22.89;81.25
77939;BME280;67136;47.546;21.630;2023-07-31T06:08:48;99883.56;;;23.51;78.15
77939;BME280;67136;47.546;21.630;2023-07-31T06:11:52;99880.66;;;23.34;76.80
77939;BME280;67136;47.546;21.630;2023-07-31T06:14:55;99870.03;;;23.28;77.25
77939;BME280;67136;47.546;21.630;2023-07-31T06:17:57;99878.00;;;23.53;74.69
77939;BME280;67136;47.546;21.630;2023-07-31T06:21:01;99890.75;;;23.93;70.70
77939;BME280;67136;47.546;21.630;2023-07-31T06:24:05;99862.75;;;24.80;68.56
77939;BME280;67136;47.546;21.630;2023-07-31T06:27:07;99868.75;;;24.45;69.14
77939;BME280;67136;47.546;21.630;2023-07-31T06:30:11;99875.47;;;24.66;68.70
77939;BME280;67136;47.546;21.630;2023-07-31T06:33:13;99867.34;;;25.14;67.18
77939;BME280;67136;47.546;21.630;2023-07-31T06:36:16;99877.88;;;25.73;64.58
77939;BME280;67136;47.546;21.630;2023-07-31T06:39:18;99872.69;;;26.85;60.90
77939;BME280;67136;47.546;21.630;2023-07-31T06:42:21;99866.41;;;27.63;57.87
77939;BME280;67136;47.546;21.630;2023-07-31T06:45:24;99870.47;;;26.82;57.81
77939;BME280;67136;47.546;21.630;2023-07-31T06:48:26;99873.91;;;27.61;56.71
77939;BME280;67136;47.546;21.630;2023-07-31T06:51:29;99874.94;;;27.93;54.86
77939;BME280;67136;47.546;21.630;2023-07-31T06:54:34;99880.50;;;27.70;55.22
77939;BME280;67136;47.546;21.630;2023-07-31T06:57:36;99870.19;;;26.39;58.71
77939;BME280;67136;47.546;21.630;2023-07-31T07:00:39;99868.56;;;25.64;60.86
77939;BME280;67136;47.546;21.630;2023-07-31T07:03:41;99863.87;;;26.45;58.83
77939;BME280;67136;47.546;21.630;2023-07-31T07:06:44;99862.59;;;26.76;58.22
77939;BME280;67136;47.546;21.630;2023-07-31T07:09:47;99855.91;;;26.50;58.58
77939;BME280;67136;47.546;21.630;2023-07-31T07:12:50;99853.00;;;26.97;57.68
77939;BME280;67136;47.546;21.630;2023-07-31T07:15:52;99853.81;;;26.80;58.70
77939;BME280;67136;47.546;21.630;2023-07-31T07:18:55;99862.09;;;26.79;58.70
77939;BME280;67136;47.546;21.630;2023-07-31T07:22:06;99857.38;;;26.69;58.98
77939;BME280;67136;47.546;21.630;2023-07-31T07:25:09;99853.72;;;26.47;59.34
77939;BME280;67136;47.546;21.630;2023-07-31T07:28:11;99842.84;;;26.54;59.62
77939;BME280;67136;47.546;21.630;2023-07-31T07:31:14;99839.31;;;26.81;58.61
77939;BME280;67136;47.546;21.630;2023-07-31T07:34:16;99845.75;;;27.14;58.37
77939;BME280;67136;47.546;21.630;2023-07-31T07:37:19;99846.50;;;27.42;57.08
77939;BME280;67136;47.546;21.630;2023-07-31T07:40:22;99843.06;;;27.14;57.98
77939;BME280;67136;47.546;21.630;2023-07-31T07:43:24;99841.28;;;27.19;57.41
77939;BME280;67136;47.546;21.630;2023-07-31T07:46:28;99835.88;;;28.07;55.40
77939;BME280;67136;47.546;21.630;2023-07-31T07:49:30;99834.13;;;28.44;54.01
77939;BME280;67136;47.546;21.630;2023-07-31T07:52:33;99833.78;;;29.20;51.19
77939;BME280;67136;47.546;21.630;2023-07-31T07:55:35;99827.50;;;29.10;50.35
77939;BME280;67136;47.546;21.630;2023-07-31T07:58:38;99821.16;;;30.29;47.94
77939;BME280;67136;47.546;21.630;2023-07-31T08:01:41;99834.13;;;31.83;44.17
77939;BME280;67136;47.546;21.630;2023-07-31T08:04:44;99832.87;;;30.80;45.09
77939;BME280;67136;47.546;21.630;2023-07-31T08:07:46;99836.13;;;30.82;44.30
77939;BME280;67136;47.546;21.630;2023-07-31T08:10:49;99841.47;;;31.62;43.03
77939;BME280;67136;47.546;21.630;2023-07-31T08:13:51;99834.88;;;32.96;40.18
77939;BME280;67136;47.546;21.630;2023-07-31T08:16:54;99837.53;;;34.48;37.15
77939;BME280;67136;47.546;21.630;2023-07-31T08:19:57;99842.75;;;34.63;36.13
77939;BME280;67136;47.546;21.630;2023-07-31T08:23:01;99850.97;;;36.13;33.48
77939;BME280;67136;47.546;21.630;2023-07-31T08:26:03;99847.91;;;36.78;33.12
77939;BME280;67136;47.546;21.630;2023-07-31T08:29:06;99841.00;;;33.87;36.99
77939;BME280;67136;47.546;21.630;2023-07-31T08:32:09;99841.72;;;34.40;35.60
77939;BME280;67136;47.546;21.630;2023-07-31T08:35:11;99838.78;;;35.25;34.26
77939;BME280;67136;47.546;21.630;2023-07-31T08:38:14;99833.37;;;35.38;33.47
77939;BME280;67136;47.546;21.630;2023-07-31T08:41:17;99838.66;;;36.02;32.87
77939;BME280;67136;47.546;21.630;2023-07-31T08:44:19;99835.59;;;34.30;34.05
77939;BME280;67136;47.546;21.630;2023-07-31T08:47:23;99831.66;;;34.22;34.41
77939;BME280;67136;47.546;21.630;2023-07-31T08:50:26;99838.78;;;30.77;40.79
77939;BME280;67136;47.546;21.630;2023-07-31T08:53:30;99838.78;;;32.31;38.26
77939;BME280;67136;47.546;21.630;2023-07-31T08:56:33;99835.41;;;33.27;36.99
77939;BME280;67136;47.546;21.630;2023-07-31T08:59:37;99842.94;;;35.03;34.73
77939;BME280;67136;47.546;21.630;2023-07-31T09:02:56;99841.63;;;34.27;34.09
77939;BME280;67136;47.546;21.630;2023-07-31T09:06:02;99836.31;;;32.35;36.97
77939;BME280;67136;47.546;21.630;2023-07-31T09:09:06;99838.53;;;33.39;35.71
77939;BME280;67136;47.546;21.630;2023-07-31T09:12:09;99840.16;;;34.71;33.75
77939;BME280;67136;47.546;21.630;2023-07-31T09:15:11;99833.97;;;36.30;31.06
77939;BME280;67136;47.546;21.630;2023-07-31T09:18:53;99833.50;;;36.64;30.48
77939;BME280;67136;47.546;21.630;2023-07-31T09:21:55;99823.94;;;37.41;29.06
77939;BME280;67136;47.546;21.630;2023-07-31T09:25:14;99824.00;;;37.50;28.26
77939;BME280;67136;47.546;21.630;2023-07-31T09:28:17;99814.47;;;38.42;27.32
77939;BME280;67136;47.546;21.630;2023-07-31T09:31:41;99814.28;;;38.22;26.83
77939;BME280;67136;47.546;21.630;2023-07-31T09:34:44;99813.88;;;39.34;25.67
77939;BME280;67136;47.546;21.630;2023-07-31T09:37:52;99810.13;;;40.55;25.02
77939;BME280;67136;47.546;21.630;2023-07-31T09:40:55;99810.31;;;39.80;25.81
77939;BME280;67136;47.546;21.630;2023-07-31T09:44:01;99810.25;;;40.59;25.21
77939;BME280;67136;47.546;21.630;2023-07-31T09:47:03;99810.87;;;39.94;25.38
77939;BME280;67136;47.546;21.630;2023-07-31T09:50:09;99806.16;;;37.52;29.02
77939;BME280;67136;47.546;21.630;2023-07-31T09:53:15;99809.63;;;35.71;30.78
77939;BME280;67136;47.546;21.630;2023-07-31T09:56:19;99809.06;;;34.45;32.69
77939;BME280;67136;47.546;21.630;2023-07-31T09:59:23;99804.16;;;33.34;33.99
77939;BME280;67136;47.546;21.630;2023-07-31T10:02:26;99800.44;;;32.14;35.19
77939;BME280;67136;47.546;21.630;2023-07-31T10:05:42;99806.69;;;32.10;35.31
77939;BME280;67136;47.546;21.630;2023-07-31T10:08:47;99803.37;;;32.23;35.39
77939;BME280;67136;47.546;21.630;2023-07-31T10:12:00;99806.25;;;34.13;32.56
77939;BME280;67136;47.546;21.630;2023-07-31T10:15:03;99799.03;;;34.46;31.84
77939;BME280;67136;47.546;21.630;2023-07-31T10:18:06;99804.28;;;37.61;27.89
77939;BME280;67136;47.546;21.630;2023-07-31T10:21:10;99800.66;;;39.36;26.57
77939;BME280;67136;47.546;21.630;2023-07-31T10:24:14;99790.97;;;37.29;28.79
77939;BME280;67136;47.546;21.630;2023-07-31T10:27:17;99802.69;;;33.70;33.37
77939;BME280;67136;47.546;21.630;2023-07-31T10:30:23;99800.34;;;35.85;30.74
77939;BME280;67136;47.546;21.630;2023-07-31T10:33:27;99795.41;;;37.56;28.55
77939;BME280;67136;47.546;21.630;2023-07-31T10:36:30;99799.50;;;39.46;25.92
77939;BME280;67136;47.546;21.630;2023-07-31T10:39:34;99791.28;;;35.90;30.21
77939;BME280;67136;47.546;21.630;2023-07-31T10:42:50;99789.47;;;35.58;30.41
77939;BME280;67136;47.546;21.630;2023-07-31T10:45:53;99782.81;;;37.07;28.05
77939;BME280;67136;47.546;21.630;2023-07-31T10:49:01;99785.41;;;39.18;25.30
77939;BME280;67136;47.546;21.630;2023-07-31T10:52:04;99783.22;;;40.08;23.69
77939;BME280;67136;47.546;21.630;2023-07-31T10:55:24;99787.50;;;40.58;22.28
77939;BME280;67136;47.546;21.630;2023-07-31T10:58:27;99774.34;;;37.39;25.01
77939;BME280;67136;47.546;21.630;2023-07-31T11:01:50;99774.44;;;36.01;27.96
77939;BME280;67136;47.546;21.630;2023-07-31T11:05:11;99764.13;;;34.34;30.07
77939;BME280;67136;47.546;21.630;2023-07-31T11:08:33;99758.03;;;32.48;32.53
77939;BME280;67136;47.546;21.630;2023-07-31T11:11:36;99760.47;;;34.25;30.82
77939;BME280;67136;47.546;21.630;2023-07-31T11:14:39;99767.91;;;37.83;26.18
77939;BME280;67136;47.546;21.630;2023-07-31T11:17:42;99764.87;;;39.50;24.71
77939;BME280;67136;47.546;21.630;2023-07-31T11:20:45;99757.56;;;38.27;25.98
77939;BME280;67136;47.546;21.630;2023-07-31T11:23:50;99766.53;;;38.53;25.97
77939;BME280;67136;47.546;21.630;2023-07-31T11:26:54;99765.72;;;39.71;23.70
77939;BME280;67136;47.546;21.630;2023-07-31T11:30:00;99765.06;;;37.57;26.98
77939;BME280;67136;47.546;21.630;2023-07-31T11:33:05;99759.72;;;35.21;30.09
77939;BME280;67136;47.546;21.630;2023-07-31T11:36:15;99759.78;;;36.69;26.78
77939;BME280;67136;47.546;21.630;2023-07-31T11:39:18;99755.78;;;39.20;24.59
77939;BME280;67136;47.546;21.630;2023-07-31T11:42:21;99755.63;;;39.17;24.64
77939;BME280;67136;47.546;21.630;2023-07-31T11:45:26;99758.09;;;40.26;23.40
77939;BME280;67136;47.546;21.630;2023-07-31T11:48:33;99755.16;;;41.41;22.09
77939;BME280;67136;47.546;21.630;2023-07-31T11:51:37;99760.97;;;40.50;22.37
77939;BME280;67136;47.546;21.630;2023-07-31T11:54:40;99757.72;;;40.36;22.37
77939;BME280;67136;47.546;21.630;2023-07-31T11:57:44;99751.91;;;40.70;22.45
77939;BME280;67136;47.546;21.630;2023-07-31T12:00:48;99751.34;;;39.45;24.53
77939;BME280;67136;47.546;21.630;2023-07-31T12:03:52;99750.75;;;39.31;25.06
77939;BME280;67136;47.546;21.630;2023-07-31T12:06:55;99750.69;;;40.80;23.17
77939;BME280;67136;47.546;21.630;2023-07-31T12:10:00;99745.31;;;38.76;25.49
77939;BME280;67136;47.546;21.630;2023-07-31T12:13:03;99731.63;;;37.99;26.15
77939;BME280;67136;47.546;21.630;2023-07-31T12:16:06;99729.69;;;36.74;27.58
77939;BME280;67136;47.546;21.630;2023-07-31T12:19:09;99726.84;;;37.09;26.95
77939;BME280;67136;47.546;21.630;2023-07-31T12:22:13;99721.44;;;36.65;27.60
77939;BME280;67136;47.546;21.630;2023-07-31T12:25:16;99718.50;;;38.99;24.80
77939;BME280;67136;47.546;21.630;2023-07-31T12:28:22;99715.22;;;37.74;25.79
77939;BME280;67136;47.546;21.630;2023-07-31T12:31:27;99719.25;;;37.37;26.64
77939;BME280;67136;47.546;21.630;2023-07-31T12:34:31;99715.25;;;38.25;25.46
77939;BME280;67136;47.546;21.630;2023-07-31T12:37:33;99712.19;;;37.75;26.62
77939;BME280;67136;47.546;21.630;2023-07-31T12:40:37;99701.69;;;36.15;29.30
77939;BME280;67136;47.546;21.630;2023-07-31T12:43:42;99701.56;;;35.03;31.35
77939;BME280;67136;47.546;21.630;2023-07-31T12:46:45;99699.28;;;33.96;33.27
77939;BME280;67136;47.546;21.630;2023-07-31T12:49:48;99698.31;;;34.24;32.81
77939;BME280;67136;47.546;21.630;2023-07-31T12:52:51;99697.16;;;34.62;32.38
77939;BME280;67136;47.546;21.630;2023-07-31T12:55:54;99693.00;;;35.64;30.51
77939;BME280;67136;47.546;21.630;2023-07-31T12:58:57;99690.09;;;36.32;28.78
77939;BME280;67136;47.546;21.630;2023-07-31T13:01:59;99694.50;;;34.89;31.19
77939;BME280;67136;47.546;21.630;2023-07-31T13:05:03;99684.50;;;33.64;32.80
77939;BME280;67136;47.546;21.630;2023-07-31T13:08:05;99682.06;;;32.30;35.85
77939;BME280;67136;47.546;21.630;2023-07-31T13:11:08;99677.66;;;32.44;35.68
77939;BME280;67136;47.546;21.630;2023-07-31T13:14:10;99678.59;;;31.76;36.73
77939;BME280;67136;47.546;21.630;2023-07-31T13:17:13;99669.25;;;31.58;36.97
77939;BME280;67136;47.546;21.630;2023-07-31T13:20:16;99671.41;;;30.47;38.91
77939;BME280;67136;47.546;21.630;2023-07-31T13:23:18;99673.78;;;29.98;40.16
77939;BME280;67136;47.546;21.630;2023-07-31T13:26:21;99681.06;;;30.03;39.92
77939;BME280;67136;47.546;21.630;2023-07-31T13:29:23;99673.47;;;29.80;41.45
77939;BME280;67136;47.546;21.630;2023-07-31T13:32:26;99671.50;;;31.95;36.99
77939;BME280;67136;47.546;21.630;2023-07-31T13:35:29;99668.28;;;34.66;32.49
77939;BME280;67136;47.546;21.630;2023-07-31T13:38:33;99666.13;;;36.65;29.71
77939;BME280;67136;47.546;21.630;2023-07-31T13:41:36;99669.91;;;37.73;27.21
77939;BME280;67136;47.546;21.630;2023-07-31T13:44:39;99668.16;;;39.00;26.14
77939;BME280;67136;47.546;21.630;2023-07-31T13:47:42;99664.72;;;37.46;27.92
77939;BME280;67136;47.546;21.630;2023-07-31T13:50:44;99658.19;;;37.72;27.65
77939;BME280;67136;47.546;21.630;2023-07-31T13:53:47;99660.75;;;38.45;25.98
77939;BME280;67136;47.546;21.630;2023-07-31T13:56:50;99658.87;;;36.16;28.78
77939;BME280;67136;47.546;21.630;2023-07-31T13:59:53;99657.28;;;35.17;30.57
77939;BME280;67136;47.546;21.630;2023-07-31T14:02:55;99651.47;;;32.87;33.74
77939;BME280;67136;47.546;21.630;2023-07-31T14:05:58;99651.53;;;33.10;33.78
77939;BME280;67136;47.546;21.630;2023-07-31T14:09:01;99653.91;;;33.59;32.94
77939;BME280;67136;47.546;21.630;2023-07-31T14:12:04;99640.41;;;33.54;32.60
77939;BME280;67136;47.546;21.630;2023-07-31T14:15:07;99644.84;;;32.12;35.34
77939;BME280;67136;47.546;21.630;2023-07-31T14:18:10;99641.44;;;31.52;35.77
77939;BME280;67136;47.546;21.630;2023-07-31T14:21:13;99641.47;;;31.47;35.88
77939;BME280;67136;47.546;21.630;2023-07-31T14:24:16;99641.63;;;32.10;35.28
77939;BME280;67136;47.546;21.630;2023-07-31T14:27:18;99647.28;;;31.06;37.28
77939;BME280;67136;47.546;21.630;2023-07-31T14:30:21;99650.87;;;30.71;38.03
77939;BME280;67136;47.546;21.630;2023-07-31T14:33:24;99639.53;;;30.64;38.71
77939;BME280;67136;47.546;21.630;2023-07-31T14:36:27;99646.59;;;30.30;40.07
77939;BME280;67136;47.546;21.630;2023-07-31T14:39:29;99637.91;;;30.58;39.79
77939;BME280;67136;47.546;21.630;2023-07-31T14:42:32;99630.06;;;31.99;37.15
77939;BME280;67136;47.546;21.630;2023-07-31T14:45:34;99635.72;;;33.17;34.99
77939;BME280;67136;47.546;21.630;2023-07-31T14:48:37;99633.25;;;32.97;35.58
77939;BME280;67136;47.546;21.630;2023-07-31T14:51:40;99628.56;;;34.06;33.55
77939;BME280;67136;47.546;21.630;2023-07-31T14:54:43;99624.81;;;34.66;32.49
77939;BME280;67136;47.546;21.630;2023-07-31T14:57:46;99623.50;;;33.43;33.88
77939;BME280;67136;47.546;21.630;2023-07-31T15:00:48;99615.94;;;32.93;34.25
77939;BME280;67136;47.546;21.630;2023-07-31T15:03:51;99614.69;;;33.51;33.45
77939;BME280;67136;47.546;21.630;2023-07-31T15:06:54;99613.09;;;33.08;34.18
77939;BME280;67136;47.546;21.630;2023-07-31T15:09:57;99607.69;;;32.56;35.00
77939;BME280;67136;47.546;21.630;2023-07-31T15:13:00;99613.22;;;31.69;36.44
77939;BME280;67136;47.546;21.630;2023-07-31T15:16:03;99610.16;;;31.31;37.42
77939;BME280;67136;47.546;21.630;2023-07-31T15:19:06;99615.94;;;31.10;37.36
77939;BME280;67136;47.546;21.630;2023-07-31T15:22:09;99612.47;;;30.99;37.99
77939;BME280;67136;47.546;21.630;2023-07-31T15:25:11;99609.84;;;30.79;37.99
77939;BME280;67136;47.546;21.630;2023-07-31T15:28:14;99602.50;;;30.75;38.10
77939;BME280;67136;47.546;21.630;2023-07-31T15:31:17;99605.25;;;30.50;38.66
77939;BME280;67136;47.546;21.630;2023-07-31T15:34:19;99617.16;;;30.03;38.70
77939;BME280;67136;47.546;21.630;2023-07-31T15:37:22;99612.03;;;29.97;38.95
77939;BME280;67136;47.546;21.630;2023-07-31T15:40:25;99609.31;;;29.72;39.27
77939;BME280;67136;47.546;21.630;2023-07-31T15:43:28;99602.16;;;28.74;41.60
77939;BME280;67136;47.546;21.630;2023-07-31T15:46:31;99605.78;;;28.21;43.05
77939;BME280;67136;47.546;21.630;2023-07-31T15:49:34;99608.47;;;28.21;42.36
77939;BME280;67136;47.546;21.630;2023-07-31T15:52:37;99604.37;;;28.45;42.50
77939;BME280;67136;47.546;21.630;2023-07-31T15:55:39;99598.34;;;28.33;42.24
77939;BME280;67136;47.546;21.630;2023-07-31T15:58:42;99595.34;;;28.25;43.09
77939;BME280;67136;47.546;21.630;2023-07-31T16:01:44;99602.06;;;27.90;43.98
77939;BME280;67136;47.546;21.630;2023-07-31T16:04:47;99596.69;;;27.90;44.42
77939;BME280;67136;47.546;21.630;2023-07-31T16:07:50;99602.38;;;27.72;45.61
77939;BME280;67136;47.546;21.630;2023-07-31T16:10:53;99599.94;;;27.97;44.85
77939;BME280;67136;47.546;21.630;2023-07-31T16:13:55;99604.16;;;28.15;45.64